Terminal Aerodrome Forecast
Issued by NWS

Home | Current Version | Previous Version | Graphics & Text | Print | Product List | Glossary On
Versions: 1 2 3 4 5 6 7 8 9 10 11 12 13 14 15 16 17 18 19 20 21 22 23 24 25 26 27 28 29 30 31
000
FTUS45 KGGW 202320
TAFGDV
TAF
KGDV 202320Z 2100/2124 35010KT P6SM SCT110
     FM210200 35006KT P6SM VCSH SCT090 BKN110
     FM210600 35006KT P6SM FEW150
     FM211800 27005KT P6SM FEW090=

USA.gov is the U.S. government's official web portal to all federal, state and local government web resources and services.